aviador You're here:

UKDD Decoded Metar

DNEPROPETROVSK in UKRAINE
Report Time2017-09-20 12:30:00
UTC Time2017-09-20 12:42:07
Flight Rules vfr VFR
Wind130° at 12 kt
W.Decomp.*RWY 08: 8.8 kt HW 8.2 kt RCW
W.Rank130° ranks 23
Current wind is above 130° avg. (7.4)
Visibility9999 m
Phenomena:N/A
Clouds:N/A
Expected CloudBase > 9,200 ft AGL from Temp-Dew spread
CeilingNone
Temp33°C (ISA +19)
Dew Point10°C (24% RH)
Heat Index31.3°C
AAT28.6°C
QNH1012 hPa
Density Alt2,851 ft
Elevation489 ft
Report Wrong Elevation
Raw Report
UKDD 201230Z 13006MPS 100V160 CAVOK 33/10 Q1012 R08/090070 TEMPO
12009G14MPS=

Extra information for UKDD:More info

Metar Taf Metar & Taf Last 4 Metars F.Rules Stats Wind Profile Meteogram Temp Stats Airport Information Weather charts Add Link Nearby VenuesMetar ALERT Operation Metar Decoded Social comments